createdAt,value
2018-09-30T00:00:54.810Z,99.90
2018-09-30T00:03:23.299Z,99.90
2018-09-30T00:05:51.933Z,99.90
2018-09-30T00:08:20.467Z,99.90
2018-09-30T00:10:49.138Z,99.90
2018-09-30T00:13:17.697Z,99.90
2018-09-30T00:15:46.188Z,99.90
2018-09-30T00:18:14.720Z,99.90
2018-09-30T00:20:43.194Z,99.90
2018-09-30T00:23:11.699Z,99.90
2018-09-30T00:25:45.511Z,99.90
2018-09-30T00:28:14.143Z,99.90
2018-09-30T00:30:42.861Z,99.90
2018-09-30T00:33:11.299Z,99.90
2018-09-30T00:35:39.927Z,99.90
2018-09-30T00:38:08.499Z,99.90
2018-09-30T00:40:37.117Z,99.90
2018-09-30T00:43:05.607Z,99.90
2018-09-30T00:45:34.269Z,99.90
2018-09-30T00:48:02.827Z,99.90
2018-09-30T00:50:31.422Z,99.90
2018-09-30T00:53:00.058Z,99.90
2018-09-30T00:55:28.816Z,99.90
2018-09-30T00:57:57.479Z,99.90
2018-09-30T01:00:26.055Z,99.90
2018-09-30T01:02:54.834Z,99.90
2018-09-30T01:05:23.338Z,99.90
2018-09-30T01:07:51.919Z,99.90
2018-09-30T01:10:20.477Z,99.90
2018-09-30T01:12:49.167Z,99.90
2018-09-30T01:15:17.708Z,99.90
2018-09-30T01:17:46.322Z,99.90
2018-09-30T01:20:14.891Z,99.90
2018-09-30T01:22:43.427Z,99.90
2018-09-30T01:25:12.088Z,99.90
2018-09-30T01:27:40.619Z,99.90
2018-09-30T01:30:09.167Z,99.90
2018-09-30T01:32:37.715Z,99.90
2018-09-30T01:35:06.473Z,99.90
2018-09-30T01:37:35.102Z,99.90
2018-09-30T01:40:03.694Z,99.90
2018-09-30T01:42:32.161Z,99.90
2018-09-30T01:45:00.692Z,99.90
2018-09-30T01:47:29.619Z,99.90
2018-09-30T01:49:58.131Z,99.90
2018-09-30T01:53:02.675Z,99.90
2018-09-30T01:55:31.190Z,99.90
2018-09-30T01:57:59.839Z,99.90
2018-09-30T02:00:28.391Z,99.90
2018-09-30T02:02:56.964Z,99.90
2018-09-30T02:05:25.484Z,99.90
2018-09-30T02:07:53.932Z,99.90
2018-09-30T02:10:22.435Z,99.90
2018-09-30T02:12:51.054Z,99.90
2018-09-30T02:15:19.546Z,99.90
2018-09-30T02:17:48.158Z,99.90
2018-09-30T02:20:16.774Z,99.90
2018-09-30T02:22:45.366Z,99.90
2018-09-30T02:25:14.006Z,99.90
2018-09-30T02:27:42.587Z,99.90
2018-09-30T02:30:11.214Z,99.90
2018-09-30T02:32:39.720Z,99.90
2018-09-30T02:35:08.197Z,99.90
2018-09-30T02:37:36.689Z,99.90
2018-09-30T02:40:05.453Z,99.90
2018-09-30T02:42:34.200Z,99.90
2018-09-30T02:45:02.694Z,99.90
2018-09-30T02:47:31.360Z,99.90
2018-09-30T02:49:59.805Z,99.90
2018-09-30T02:52:28.538Z,99.90
2018-09-30T02:54:57.060Z,99.90
2018-09-30T02:57:25.726Z,99.90
2018-09-30T02:59:54.219Z,99.90
2018-09-30T03:02:22.879Z,99.90
2018-09-30T03:04:51.460Z,99.90
2018-09-30T03:07:25.255Z,99.90
2018-09-30T03:09:53.768Z,99.90
2018-09-30T03:12:22.617Z,99.90
2018-09-30T03:14:51.077Z,99.90
2018-09-30T03:17:19.563Z,99.90
2018-09-30T03:19:48.212Z,99.90
2018-09-30T03:22:16.798Z,99.90
2018-09-30T03:24:45.367Z,99.90
2018-09-30T03:27:13.938Z,99.90
2018-09-30T03:29:42.631Z,99.90
2018-09-30T03:32:11.136Z,99.90
2018-09-30T03:34:39.766Z,99.90
2018-09-30T03:37:08.425Z,99.90
2018-09-30T03:39:36.919Z,99.90
2018-09-30T03:42:05.420Z,99.90
2018-09-30T03:44:34.091Z,99.90
2018-09-30T03:47:02.724Z,99.90
2018-09-30T03:49:31.320Z,99.90
2018-09-30T03:51:59.847Z,99.90
2018-09-30T03:54:28.306Z,99.90
2018-09-30T03:56:56.835Z,99.90
2018-09-30T03:59:25.619Z,99.90
2018-09-30T04:01:54.098Z,99.90
2018-09-30T04:04:22.910Z,99.90
2018-09-30T04:06:51.423Z,99.90
2018-09-30T04:09:20.003Z,99.90
2018-09-30T04:11:48.566Z,99.90
2018-09-30T04:14:17.215Z,99.90
2018-09-30T04:16:45.840Z,99.90
2018-09-30T04:19:14.471Z,99.90
2018-09-30T04:21:43.052Z,99.90
2018-09-30T04:24:11.929Z,99.90
2018-09-30T04:26:41.726Z,99.90
2018-09-30T04:29:10.378Z,99.90
2018-09-30T04:31:38.894Z,99.90
2018-09-30T04:34:07.364Z,99.90
2018-09-30T04:36:36.476Z,99.90
2018-09-30T04:39:07.297Z,99.90
2018-09-30T04:41:36.077Z,99.90
2018-09-30T04:44:04.878Z,99.90
2018-09-30T04:46:33.559Z,99.90
2018-09-30T04:49:02.157Z,99.90
2018-09-30T04:51:30.631Z,99.90
2018-09-30T04:53:59.431Z,99.90
2018-09-30T04:56:28.363Z,99.90
2018-09-30T04:58:56.951Z,99.90
2018-09-30T05:01:25.571Z,99.90
2018-09-30T05:03:54.062Z,99.90
2018-09-30T05:06:22.555Z,99.90
2018-09-30T05:08:51.083Z,99.90
2018-09-30T05:11:19.765Z,99.90
2018-09-30T05:13:48.259Z,99.90
2018-09-30T05:16:16.811Z,99.90
2018-09-30T05:18:45.610Z,99.90
2018-09-30T05:21:14.262Z,99.90
2018-09-30T05:23:43.000Z,99.90
2018-09-30T05:26:11.922Z,99.90
2018-09-30T05:28:40.440Z,99.90
2018-09-30T05:31:09.162Z,99.90
2018-09-30T05:33:37.658Z,99.90
2018-09-30T05:36:06.278Z,99.90
2018-09-30T05:38:34.843Z,99.90
2018-09-30T05:41:03.374Z,99.90
2018-09-30T05:43:32.075Z,99.90
2018-09-30T05:46:00.583Z,99.90
2018-09-30T05:48:29.153Z,99.90
2018-09-30T05:50:57.722Z,99.90
2018-09-30T05:53:26.289Z,99.90
2018-09-30T05:55:55.082Z,99.90
2018-09-30T05:58:23.532Z,99.90
2018-09-30T06:00:52.036Z,99.90
2018-09-30T06:03:20.727Z,99.90
2018-09-30T06:05:49.419Z,99.90
2018-09-30T06:08:17.963Z,99.90
2018-09-30T06:10:46.453Z,99.90
2018-09-30T06:13:14.966Z,99.90
2018-09-30T06:15:43.538Z,99.90
2018-09-30T06:18:12.356Z,99.90
2018-09-30T06:20:41.007Z,99.90
2018-09-30T06:23:09.508Z,99.90
2018-09-30T06:25:38.076Z,99.90
2018-09-30T06:28:06.667Z,99.90
2018-09-30T06:30:35.281Z,99.90
2018-09-30T06:33:03.766Z,99.90
2018-09-30T06:35:32.410Z,99.90
2018-09-30T06:38:01.063Z,99.90
2018-09-30T06:40:30.110Z,99.90
2018-09-30T06:42:58.599Z,99.90
2018-09-30T06:45:27.127Z,99.90
2018-09-30T06:47:55.619Z,99.90
2018-09-30T06:50:24.267Z,99.90
2018-09-30T06:52:52.803Z,99.90
2018-09-30T06:55:21.511Z,99.90
2018-09-30T06:57:50.070Z,99.90
2018-09-30T07:00:18.645Z,99.90
2018-09-30T07:02:47.287Z,99.90
2018-09-30T07:05:15.851Z,99.90
2018-09-30T07:07:44.747Z,99.90
2018-09-30T07:10:13.399Z,99.90
2018-09-30T07:12:42.224Z,99.90
2018-09-30T07:15:10.965Z,99.90
2018-09-30T07:17:39.487Z,99.90
2018-09-30T07:20:08.091Z,99.90
2018-09-30T07:22:36.666Z,99.90
2018-09-30T07:25:05.285Z,99.90
2018-09-30T07:27:33.895Z,99.90
2018-09-30T07:30:02.559Z,99.90
2018-09-30T07:32:31.071Z,99.90
2018-09-30T07:34:59.596Z,99.90
2018-09-30T07:37:28.406Z,99.90
2018-09-30T07:39:57.183Z,99.90
2018-09-30T07:42:25.689Z,99.90
2018-09-30T07:44:54.331Z,99.90
2018-09-30T07:47:22.874Z,99.90
2018-09-30T07:49:51.838Z,99.90
2018-09-30T07:52:20.438Z,99.90
2018-09-30T07:54:48.943Z,99.90
2018-09-30T07:57:17.592Z,99.90
2018-09-30T07:59:46.132Z,99.90
2018-09-30T08:02:15.036Z,99.90
2018-09-30T08:04:43.696Z,99.90
2018-09-30T08:07:12.512Z,99.90
2018-09-30T08:09:41.293Z,99.90
2018-09-30T08:12:09.894Z,99.90
2018-09-30T08:14:38.424Z,99.90
2018-09-30T08:17:07.161Z,99.90
2018-09-30T08:19:35.791Z,99.90
2018-09-30T08:22:04.500Z,99.90
2018-09-30T08:24:33.194Z,99.90
2018-09-30T08:27:01.622Z,99.90
2018-09-30T08:29:30.386Z,99.90
2018-09-30T08:31:58.968Z,99.90
2018-09-30T08:34:27.764Z,99.90
2018-09-30T08:36:56.428Z,99.90
2018-09-30T08:39:24.978Z,99.90
2018-09-30T08:41:53.519Z,99.90
2018-09-30T08:44:22.333Z,99.90
2018-09-30T08:46:51.135Z,99.90
2018-09-30T08:49:19.640Z,99.90
2018-09-30T08:51:48.186Z,99.90
2018-09-30T08:54:16.696Z,99.90
2018-09-30T08:56:45.607Z,99.90
2018-09-30T08:59:14.377Z,99.90
2018-09-30T09:01:42.942Z,99.90
2018-09-30T09:04:11.451Z,99.90
2018-09-30T09:06:40.137Z,99.90
2018-09-30T09:11:29.463Z,99.90
2018-09-30T09:13:58.079Z,99.90
2018-09-30T09:16:26.696Z,99.90
2018-09-30T09:18:55.279Z,99.90
2018-09-30T09:21:23.871Z,99.90
2018-09-30T09:23:52.456Z,99.90
2018-09-30T09:26:21.026Z,99.90
2018-09-30T09:28:49.710Z,99.90
2018-09-30T09:31:18.296Z,99.90
2018-09-30T09:33:46.898Z,99.90
2018-09-30T09:36:15.427Z,99.90
2018-09-30T09:38:44.236Z,99.90
2018-09-30T09:41:13.048Z,99.90
2018-09-30T09:43:41.866Z,99.90
2018-09-30T09:46:10.574Z,99.90
2018-09-30T09:48:39.396Z,99.90
2018-09-30T09:51:08.055Z,99.90
2018-09-30T09:53:36.644Z,99.90
2018-09-30T09:56:05.208Z,99.90
2018-09-30T09:58:33.784Z,99.90
2018-09-30T10:01:05.870Z,99.90
2018-09-30T10:03:34.620Z,99.90
2018-09-30T10:06:03.395Z,99.90
2018-09-30T10:08:31.955Z,99.90
2018-09-30T10:11:00.613Z,99.90
2018-09-30T10:13:29.205Z,99.90
2018-09-30T10:15:58.038Z,99.90
2018-09-30T10:18:26.839Z,99.90
2018-09-30T10:20:55.477Z,99.90
2018-09-30T10:23:24.183Z,99.90
2018-09-30T10:25:52.835Z,99.90
2018-09-30T10:28:21.386Z,99.90
2018-09-30T10:30:49.943Z,99.90
2018-09-30T10:33:18.714Z,99.50
2018-09-30T10:35:47.197Z,99.50
2018-09-30T10:38:15.804Z,98.70
2018-09-30T10:40:44.424Z,98.20
2018-09-30T10:43:12.923Z,99.00
2018-09-30T10:45:41.530Z,98.70
2018-09-30T10:48:10.117Z,98.90
2018-09-30T10:50:38.724Z,98.70
2018-09-30T10:53:07.297Z,98.70
2018-09-30T10:55:35.932Z,98.30
2018-09-30T10:58:04.789Z,98.20
2018-09-30T11:00:33.415Z,97.80
2018-09-30T11:03:02.394Z,98.40
2018-09-30T11:05:31.211Z,98.00
2018-09-30T11:08:00.038Z,97.70
2018-09-30T11:10:28.575Z,97.50
2018-09-30T11:12:57.352Z,96.80
2018-09-30T11:15:26.002Z,97.70
2018-09-30T11:17:54.545Z,98.50
2018-09-30T11:20:23.098Z,96.50
2018-09-30T11:22:51.771Z,97.20
2018-09-30T11:25:20.581Z,97.10
2018-09-30T11:27:49.173Z,96.60
2018-09-30T11:30:17.764Z,96.30
2018-09-30T11:32:46.485Z,96.70
2018-09-30T11:35:15.110Z,97.50
2018-09-30T11:37:43.608Z,97.70
2018-09-30T11:40:12.162Z,97.30
2018-09-30T11:42:40.820Z,97.40
2018-09-30T11:45:09.620Z,96.40
2018-09-30T11:47:38.286Z,96.90
2018-09-30T11:50:07.196Z,96.50
2018-09-30T11:52:35.829Z,97.00
2018-09-30T11:55:04.426Z,96.90
2018-09-30T11:57:33.327Z,96.30
2018-09-30T12:00:02.304Z,97.30
2018-09-30T12:02:30.937Z,97.30
2018-09-30T12:04:59.600Z,96.60
2018-09-30T12:07:28.184Z,95.70
2018-09-30T12:09:56.860Z,96.20
2018-09-30T12:12:25.516Z,96.40
2018-09-30T12:14:54.024Z,96.30
2018-09-30T12:17:22.696Z,96.10
2018-09-30T12:19:51.343Z,96.10
2018-09-30T12:22:20.297Z,95.80
2018-09-30T12:24:48.907Z,95.60
2018-09-30T12:27:17.754Z,95.60
2018-09-30T12:29:46.241Z,96.50
2018-09-30T12:32:15.069Z,95.80
2018-09-30T12:34:43.738Z,95.80
2018-09-30T12:37:12.447Z,95.70
2018-09-30T12:39:41.258Z,95.90
2018-09-30T12:42:09.893Z,95.80
2018-09-30T12:44:38.484Z,95.90
2018-09-30T12:47:07.007Z,95.60
2018-09-30T12:49:35.778Z,95.00
2018-09-30T12:52:04.463Z,95.20
2018-09-30T12:54:33.214Z,95.20
2018-09-30T12:57:01.967Z,95.40
2018-09-30T12:59:30.603Z,95.60
2018-09-30T13:01:59.218Z,95.10
2018-09-30T13:04:27.860Z,95.80
2018-09-30T13:06:56.505Z,95.70
2018-09-30T13:09:25.162Z,95.50
2018-09-30T13:11:53.800Z,95.50
2018-09-30T13:14:22.410Z,95.80
2018-09-30T13:16:51.151Z,94.80
2018-09-30T13:19:19.640Z,94.30
2018-09-30T13:21:48.353Z,94.60
2018-09-30T13:24:16.951Z,94.70
2018-09-30T13:26:45.548Z,93.90
2018-09-30T13:29:14.111Z,93.80
2018-09-30T13:31:42.688Z,94.10
2018-09-30T13:34:11.328Z,93.10
2018-09-30T13:36:39.819Z,93.90
2018-09-30T13:39:10.446Z,93.90
2018-09-30T13:41:39.540Z,93.10
2018-09-30T13:44:08.415Z,93.20
2018-09-30T13:46:37.419Z,93.20
2018-09-30T13:49:06.051Z,93.20
2018-09-30T13:51:34.828Z,93.20
2018-09-30T13:54:03.441Z,92.40
2018-09-30T13:56:32.224Z,93.20
2018-09-30T13:59:00.995Z,93.40
2018-09-30T14:01:29.698Z,93.40
2018-09-30T14:03:58.293Z,91.80
2018-09-30T14:06:26.835Z,91.90
2018-09-30T14:08:55.467Z,92.70
2018-09-30T14:11:24.235Z,92.10
2018-09-30T14:13:53.131Z,91.80
2018-09-30T14:16:21.825Z,91.30
2018-09-30T14:18:50.468Z,91.70
2018-09-30T14:21:19.348Z,91.90
2018-09-30T14:23:47.892Z,91.50
2018-09-30T14:26:16.654Z,91.20
2018-09-30T14:28:45.226Z,91.50
2018-09-30T14:31:13.765Z,91.90
2018-09-30T14:33:42.354Z,92.20
2018-09-30T14:36:10.864Z,91.80
2018-09-30T14:38:39.535Z,91.80
2018-09-30T14:41:08.161Z,91.40
2018-09-30T14:43:36.998Z,91.10
2018-09-30T14:46:05.639Z,91.00
2018-09-30T14:48:34.506Z,90.90
2018-09-30T14:51:03.071Z,91.00
2018-09-30T14:53:31.607Z,90.10
2018-09-30T14:56:00.303Z,90.80
2018-09-30T14:58:28.912Z,91.10
2018-09-30T15:00:57.504Z,90.50
2018-09-30T15:03:26.012Z,89.50
2018-09-30T15:05:54.925Z,90.10
2018-09-30T15:08:23.530Z,88.20
2018-09-30T15:10:52.233Z,88.70
2018-09-30T15:13:21.023Z,89.20
2018-09-30T15:15:49.878Z,85.40
2018-09-30T15:18:18.543Z,85.40
2018-09-30T15:20:47.256Z,86.70
2018-09-30T15:23:16.091Z,85.40
2018-09-30T15:25:44.707Z,86.50
2018-09-30T15:28:13.246Z,85.60
2018-09-30T15:30:41.814Z,83.90
2018-09-30T15:33:10.619Z,85.40
2018-09-30T15:35:39.339Z,84.90
2018-09-30T15:38:07.888Z,85.20
2018-09-30T15:40:36.597Z,86.60
2018-09-30T15:43:05.430Z,85.50
2018-09-30T15:45:34.185Z,85.30
2018-09-30T15:48:02.860Z,87.30
2018-09-30T15:50:31.435Z,85.10
2018-09-30T15:53:00.218Z,86.50
2018-09-30T15:55:28.748Z,87.70
2018-09-30T15:57:57.747Z,88.70
2018-09-30T16:00:26.284Z,88.50
2018-09-30T16:02:55.109Z,87.60
2018-09-30T16:05:23.904Z,88.60
2018-09-30T16:07:52.434Z,87.90
2018-09-30T16:10:21.025Z,88.40
2018-09-30T16:12:49.928Z,88.60
2018-09-30T16:15:18.522Z,89.70
2018-09-30T16:17:47.059Z,88.60
2018-09-30T16:20:16.052Z,89.80
2018-09-30T16:22:44.833Z,90.20
2018-09-30T16:25:13.483Z,90.60
2018-09-30T16:27:42.130Z,91.00
2018-09-30T16:30:10.694Z,91.80
2018-09-30T16:32:39.433Z,91.70
2018-09-30T16:35:08.210Z,91.70
2018-09-30T16:37:36.868Z,92.40
2018-09-30T16:40:05.450Z,93.20
2018-09-30T16:42:34.173Z,93.40
2018-09-30T16:45:02.942Z,93.80
2018-09-30T16:47:31.506Z,93.20
2018-09-30T16:50:00.092Z,94.50
2018-09-30T16:52:28.611Z,93.20
2018-09-30T16:54:57.305Z,94.40
2018-09-30T16:57:25.860Z,94.80
2018-09-30T16:59:54.464Z,94.80
2018-09-30T17:02:23.050Z,95.10
2018-09-30T17:04:51.632Z,95.20
2018-09-30T17:07:20.305Z,95.10
2018-09-30T17:09:49.043Z,95.20
2018-09-30T17:12:17.675Z,95.30
2018-09-30T17:14:46.285Z,95.80
2018-09-30T17:17:14.941Z,96.10
2018-09-30T17:19:43.817Z,96.00
2018-09-30T17:22:12.351Z,96.40
2018-09-30T17:24:40.944Z,96.60
2018-09-30T17:27:09.545Z,96.50
2018-09-30T17:29:38.188Z,96.50
2018-09-30T17:32:06.795Z,96.80
2018-09-30T17:34:35.566Z,97.00
2018-09-30T17:37:04.335Z,97.00
2018-09-30T17:39:33.066Z,97.20
2018-09-30T17:42:01.601Z,97.00
2018-09-30T17:44:30.397Z,97.00
2018-09-30T17:46:59.185Z,96.80
2018-09-30T17:49:27.723Z,97.10
2018-09-30T17:51:56.525Z,96.90
2018-09-30T17:54:25.315Z,97.30
2018-09-30T17:56:54.001Z,97.20
2018-09-30T17:59:22.663Z,95.90
2018-09-30T18:01:51.342Z,97.10
2018-09-30T18:04:20.187Z,96.00
2018-09-30T18:06:48.703Z,96.30
2018-09-30T18:09:17.408Z,96.20
2018-09-30T18:11:46.370Z,96.60
2018-09-30T18:14:15.040Z,97.20
2018-09-30T18:16:43.652Z,96.70
2018-09-30T18:19:12.390Z,96.60
2018-09-30T18:21:41.094Z,96.60
2018-09-30T18:24:09.801Z,96.80
2018-09-30T18:26:38.767Z,96.80
2018-09-30T18:29:07.472Z,97.10
2018-09-30T18:31:36.432Z,97.00
2018-09-30T18:34:05.107Z,97.10
2018-09-30T18:36:34.016Z,97.40
2018-09-30T18:39:03.389Z,97.60
2018-09-30T18:41:32.148Z,97.80
2018-09-30T18:44:01.188Z,97.10
2018-09-30T18:46:30.395Z,96.70
2018-09-30T18:48:59.572Z,96.60
2018-09-30T18:51:28.581Z,96.80
2018-09-30T18:53:57.772Z,96.50
2018-09-30T18:56:26.894Z,96.10
2018-09-30T18:58:55.833Z,96.30
2018-09-30T19:01:24.866Z,96.20
2018-09-30T19:03:53.996Z,96.00
2018-09-30T19:06:23.154Z,95.90
2018-09-30T19:08:52.190Z,96.10
2018-09-30T19:11:21.240Z,95.80
2018-09-30T19:13:50.120Z,96.10
2018-09-30T19:16:19.351Z,96.10
2018-09-30T19:18:48.821Z,96.30
2018-09-30T19:21:17.823Z,96.10
2018-09-30T19:23:46.761Z,96.10
2018-09-30T19:26:15.374Z,96.40
2018-09-30T19:28:43.904Z,96.90
2018-09-30T19:31:12.506Z,97.00
2018-09-30T19:33:41.187Z,97.20
2018-09-30T19:36:09.978Z,96.70
2018-09-30T19:38:38.580Z,96.90
2018-09-30T19:41:07.543Z,97.00
2018-09-30T19:43:36.383Z,97.00
2018-09-30T19:46:05.171Z,97.10
2018-09-30T19:48:34.242Z,96.80
2018-09-30T19:51:02.894Z,97.10
2018-09-30T19:53:31.778Z,97.00
2018-09-30T19:56:00.365Z,96.90
2018-09-30T19:58:29.204Z,97.20
2018-09-30T20:00:58.078Z,97.10
2018-09-30T20:03:26.813Z,96.80
2018-09-30T20:05:55.383Z,97.10
2018-09-30T20:08:24.065Z,97.00
2018-09-30T20:10:52.944Z,97.00
2018-09-30T20:13:21.576Z,97.20
2018-09-30T20:15:50.245Z,97.30
2018-09-30T20:18:18.894Z,97.20
2018-09-30T20:20:47.565Z,98.10
2018-09-30T20:23:16.031Z,98.30
2018-09-30T20:25:44.717Z,98.40
2018-09-30T20:28:13.355Z,98.70
2018-09-30T20:30:42.002Z,98.70
2018-09-30T20:33:10.527Z,98.80
2018-09-30T20:35:39.044Z,98.60
2018-09-30T20:38:08.121Z,98.90
2018-09-30T20:40:39.936Z,98.30
2018-09-30T20:43:08.824Z,98.50
2018-09-30T20:45:37.791Z,99.00
2018-09-30T20:48:06.876Z,99.40
2018-09-30T20:50:35.627Z,99.70
2018-09-30T20:53:04.434Z,99.40
2018-09-30T20:55:33.996Z,99.00
2018-09-30T20:58:02.948Z,98.80
2018-09-30T21:00:31.635Z,99.10
2018-09-30T21:03:00.521Z,99.70
2018-09-30T21:06:40.224Z,99.60
2018-09-30T21:09:13.542Z,99.40
2018-09-30T21:11:42.082Z,99.80
2018-09-30T21:14:10.835Z,99.30
2018-09-30T21:16:39.367Z,99.00
2018-09-30T21:19:08.086Z,99.10
2018-09-30T21:21:36.772Z,99.30
2018-09-30T21:24:05.297Z,99.00
2018-09-30T21:26:33.808Z,99.20
2018-09-30T21:29:02.392Z,99.10
2018-09-30T21:31:31.000Z,99.10
2018-09-30T21:33:59.537Z,99.10
2018-09-30T21:36:28.195Z,99.10
2018-09-30T21:38:56.891Z,99.30
2018-09-30T21:41:25.380Z,99.40
2018-09-30T21:43:54.012Z,99.70
2018-09-30T21:46:22.494Z,99.70
2018-09-30T21:48:51.247Z,99.80
2018-09-30T21:51:20.063Z,99.90
2018-09-30T21:53:48.564Z,99.90
2018-09-30T21:56:17.094Z,99.90
2018-09-30T21:58:45.811Z,99.90
2018-09-30T22:01:14.489Z,99.90
2018-09-30T22:03:42.923Z,99.90
2018-09-30T22:06:11.481Z,99.90
2018-09-30T22:08:40.116Z,99.90
2018-09-30T22:11:08.846Z,99.90
2018-09-30T22:13:37.297Z,99.90
2018-09-30T22:16:05.971Z,99.90
2018-09-30T22:18:34.483Z,99.90
2018-09-30T22:21:02.960Z,99.90
2018-09-30T22:23:31.540Z,99.90
2018-09-30T22:26:00.340Z,99.90
2018-09-30T22:28:28.946Z,99.90
2018-09-30T22:30:57.554Z,99.90
2018-09-30T22:33:26.193Z,99.90
2018-09-30T22:35:55.003Z,99.90
2018-09-30T22:38:23.564Z,99.90
2018-09-30T22:40:52.257Z,99.90
2018-09-30T22:43:20.803Z,99.90
2018-09-30T22:45:49.451Z,99.90
2018-09-30T22:48:17.971Z,99.90
2018-09-30T22:50:46.534Z,99.90
2018-09-30T22:53:15.162Z,99.90
2018-09-30T22:55:43.741Z,99.90
2018-09-30T22:58:12.384Z,99.90
2018-09-30T23:00:40.950Z,99.90
2018-09-30T23:03:09.581Z,99.90
2018-09-30T23:05:38.109Z,99.90
2018-09-30T23:08:06.728Z,99.90
2018-09-30T23:10:35.232Z,99.90
2018-09-30T23:13:03.693Z,99.90
2018-09-30T23:15:32.251Z,99.90
2018-09-30T23:18:00.746Z,99.90
2018-09-30T23:20:29.388Z,99.90
2018-09-30T23:22:57.886Z,99.90
2018-09-30T23:25:26.520Z,99.90
2018-09-30T23:27:55.023Z,99.90
2018-09-30T23:30:23.615Z,99.90
2018-09-30T23:32:52.315Z,99.90
2018-09-30T23:35:20.842Z,99.90
2018-09-30T23:37:49.450Z,99.90
2018-09-30T23:40:18.126Z,99.90
2018-09-30T23:42:46.677Z,99.90
2018-09-30T23:45:15.167Z,99.90
2018-09-30T23:47:43.880Z,99.90
2018-09-30T23:50:12.415Z,99.90
2018-09-30T23:52:40.997Z,99.90
2018-09-30T23:55:09.563Z,99.90
2018-09-30T23:57:38.268Z,99.90
